Time;durP1;ratioP1;P1;durP2;ratioP2;P2;SDS_P1;SDS_P2;PMS_P1;PMS_P2;Temp;Humidity;BMP_temperature;BMP_pressure;BME280_temperature;BME280_humidity;BME280_pressure;Samples;Min_cycle;Max_cycle;Signal;HPM_P1;HPM_P2
2021/11/20 00:02:25;;;;;;;;;;;6.30;99.90;;;;;;5099106;28;20000;-85
2021/11/20 00:04:50;;;;;;;;;;;6.30;99.90;;;;;;5096185;28;19911;-84
2021/11/20 00:07:17;;;;;;;;;;;6.30;99.90;;;;;;5095833;28;20343;-84
2021/11/20 00:09:43;;;;;;;;;;;6.40;99.90;;;;;;5095686;28;19945;-84
2021/11/20 00:12:14;;;;;;;;;;;6.50;99.90;;;;;;5095695;28;20260;-84
2021/11/20 00:14:40;;;;;;;;;;;6.50;99.90;;;;;;5095556;28;20359;-82
2021/11/20 00:17:06;;;;;;;;;;;6.50;99.90;;;;;;5095557;28;19910;-84
2021/11/20 00:19:32;;;;;;;;;;;6.50;99.90;;;;;;5095505;28;19911;-84
2021/11/20 00:22:00;;;;;;;;;;;6.50;99.90;;;;;;5113332;28;19987;-84
2021/11/20 00:24:34;;;;;;;;;;;6.40;99.90;;;;;;5095476;28;19908;-84
2021/11/20 00:27:01;;;;;;;;;;;6.40;99.90;;;;;;5095442;28;20386;-84
2021/11/20 00:29:37;;;;;;;;;;;6.50;99.90;;;;;;5095438;28;19986;-84
2021/11/20 00:32:04;;;;;;;;;;;6.40;99.90;;;;;;5113717;28;19910;-84
2021/11/20 00:34:31;;;;;;;;;;;6.40;99.90;;;;;;5095272;28;19903;-84
2021/11/20 00:36:57;;;;;;;;;;;6.30;99.90;;;;;;5113575;28;19914;-84
2021/11/20 00:39:26;;;;;;;;;;;6.30;99.90;;;;;;5095394;28;19908;-84
2021/11/20 00:41:53;;;;;;;;;;;6.30;99.90;;;;;;5095199;28;20358;-84
2021/11/20 00:44:18;;;;;;;;;;;6.10;99.90;;;;;;5113562;28;19903;-84
2021/11/20 00:46:44;;;;;;;;;;;6.20;99.90;;;;;;5113488;28;20382;-85
2021/11/20 00:49:11;;;;;;;;;;;6.20;99.90;;;;;;5096621;28;20359;-84
2021/11/20 00:51:36;;;;;;;;;;;6.20;99.90;;;;;;5099179;28;19947;-84
2021/11/20 00:54:02;;;;;;;;;;;6.20;99.90;;;;;;5099141;28;19953;-84
2021/11/20 00:56:28;;;;;;;;;;;6.10;99.90;;;;;;5099110;28;20378;-84
2021/11/20 00:58:55;;;;;;;;;;;6.20;99.90;;;;;;5099099;28;19904;-84
2021/11/20 01:01:23;;;;;;;;;;;6.20;99.90;;;;;;5098991;28;19912;-84
2021/11/20 01:03:48;;;;;;;;;;;6.20;99.90;;;;;;5117200;28;19943;-84
2021/11/20 01:06:14;;;;;;;;;;;6.30;99.90;;;;;;5098997;28;19903;-84
2021/11/20 01:08:42;;;;;;;;;;;6.30;99.90;;;;;;5117102;28;20252;-84
2021/11/20 01:11:10;;;;;;;;;;;6.30;99.90;;;;;;5098762;28;19911;-84
2021/11/20 01:13:36;;;;;;;;;;;6.40;99.90;;;;;;5098769;28;19903;-84
2021/11/20 01:16:04;;;;;;;;;;;6.40;99.90;;;;;;5098752;28;19915;-84
2021/11/20 01:18:30;;;;;;;;;;;6.40;99.90;;;;;;5098685;28;19903;-84
2021/11/20 01:20:56;;;;;;;;;;;6.50;99.90;;;;;;5098540;28;20401;-84
2021/11/20 01:23:23;;;;;;;;;;;6.40;99.90;;;;;;5094906;28;19912;-84
2021/11/20 01:25:49;;;;;;;;;;;6.30;99.90;;;;;;5087208;28;19904;-84
2021/11/20 01:28:15;;;;;;;;;;;6.30;99.90;;;;;;5095167;28;19920;-84
2021/11/20 01:30:42;;;;;;;;;;;6.40;99.90;;;;;;5095050;28;19908;-84
2021/11/20 01:33:08;;;;;;;;;;;6.40;99.90;;;;;;5096243;28;19927;-85
2021/11/20 01:35:34;;;;;;;;;;;6.50;99.90;;;;;;5096185;28;19904;-84
2021/11/20 01:37:59;;;;;;;;;;;6.50;99.90;;;;;;5088313;28;20407;-84
2021/11/20 01:40:27;;;;;;;;;;;6.40;99.90;;;;;;5094902;28;19967;-84
2021/11/20 01:42:53;;;;;;;;;;;6.50;99.90;;;;;;5095973;28;20323;-85
2021/11/20 01:45:24;;;;;;;;;;;6.50;99.90;;;;;;5090943;28;19944;-84
2021/11/20 01:48:02;;;;;;;;;;;6.30;99.90;;;;;;5094739;28;19908;-84
2021/11/20 01:50:35;;;;;;;;;;;6.30;99.90;;;;;;5094753;28;20397;-84
2021/11/20 01:53:08;;;;;;;;;;;6.40;99.90;;;;;;5088397;28;19991;-84
2021/11/20 01:55:46;;;;;;;;;;;6.40;99.90;;;;;;5094568;28;19946;-84
2021/11/20 01:58:19;;;;;;;;;;;6.40;99.90;;;;;;5089714;28;19911;-84
2021/11/20 02:01:00;;;;;;;;;;;6.30;99.90;;;;;;5094640;28;19904;-84
2021/11/20 02:03:46;;;;;;;;;;;6.40;99.90;;;;;;5091533;28;19908;-84
2021/11/20 02:06:12;;;;;;;;;;;6.40;99.90;;;;;;5089708;28;19907;-84
2021/11/20 02:08:46;;;;;;;;;;;6.40;99.90;;;;;;5097980;28;19967;-84
2021/11/20 02:11:18;;;;;;;;;;;6.50;99.90;;;;;;5099020;28;20015;-83
2021/11/20 02:13:44;;;;;;;;;;;6.40;99.90;;;;;;5095908;28;19991;-84
2021/11/20 02:16:12;;;;;;;;;;;6.40;99.90;;;;;;5089316;28;19904;-84
2021/11/20 02:18:40;;;;;;;;;;;6.40;99.90;;;;;;5094245;28;19998;-84
2021/11/20 02:21:15;;;;;;;;;;;6.20;99.90;;;;;;5088424;28;19957;-84
2021/11/20 02:23:41;;;;;;;;;;;6.20;99.90;;;;;;5093769;28;20387;-84
2021/11/20 02:26:06;;;;;;;;;;;6.20;99.90;;;;;;5088356;28;19919;-84
2021/11/20 02:28:32;;;;;;;;;;;6.10;99.90;;;;;;5093927;28;19904;-84
2021/11/20 02:30:59;;;;;;;;;;;6.10;99.90;;;;;;5087079;28;19907;-84
2021/11/20 02:33:26;;;;;;;;;;;6.00;99.90;;;;;;5093849;28;19908;-84
2021/11/20 02:35:54;;;;;;;;;;;6.20;99.90;;;;;;5086211;28;19904;-84
2021/11/20 02:38:25;;;;;;;;;;;6.10;99.90;;;;;;5093761;28;19904;-84
2021/11/20 02:40:50;;;;;;;;;;;6.20;99.90;;;;;;5093654;28;20252;-84
2021/11/20 02:43:16;;;;;;;;;;;6.30;99.90;;;;;;5093622;28;19904;-84
2021/11/20 02:45:50;;;;;;;;;;;6.20;99.90;;;;;;5093553;28;20338;-85
2021/11/20 02:48:16;;;;;;;;;;;6.30;99.90;;;;;;5089239;28;19904;-84
2021/11/20 02:50:47;;;;;;;;;;;6.30;99.90;;;;;;5093517;28;20355;-84
2021/11/20 02:53:18;;;;;;;;;;;6.30;99.90;;;;;;5088720;28;19986;-84
2021/11/20 02:55:45;;;;;;;;;;;6.30;99.90;;;;;;5094719;28;19954;-84
2021/11/20 02:58:11;;;;;;;;;;;6.30;99.90;;;;;;5088318;28;20361;-84
2021/11/20 03:00:37;;;;;;;;;;;6.30;99.90;;;;;;5093242;28;19904;-84
2021/11/20 03:03:02;;;;;;;;;;;6.30;99.90;;;;;;5094446;28;19908;-85
2021/11/20 03:05:28;;;;;;;;;;;6.40;99.90;;;;;;5094478;28;20347;-84
2021/11/20 03:07:54;;;;;;;;;;;6.30;99.90;;;;;;5085794;28;19904;-84
2021/11/20 03:10:19;;;;;;;;;;;6.20;99.90;;;;;;5094436;28;19904;-84
2021/11/20 03:12:45;;;;;;;;;;;6.30;99.90;;;;;;5092078;28;19904;-84
2021/11/20 03:15:11;;;;;;;;;;;6.40;99.90;;;;;;5088031;28;19904;-84
2021/11/20 03:17:37;;;;;;;;;;;6.50;99.90;;;;;;5094271;28;20270;-84
2021/11/20 03:20:04;;;;;;;;;;;6.50;99.90;;;;;;5086790;28;19954;-84
2021/11/20 03:22:35;;;;;;;;;;;6.50;99.90;;;;;;5095050;28;19915;-84
2021/11/20 03:25:00;;;;;;;;;;;6.50;99.90;;;;;;5096279;28;19947;-84
2021/11/20 03:27:26;;;;;;;;;;;6.50;99.90;;;;;;5096158;28;19926;-85
2021/11/20 03:29:52;;;;;;;;;;;6.50;99.90;;;;;;5096102;28;19903;-84
2021/11/20 03:32:18;;;;;;;;;;;6.40;99.90;;;;;;5096141;28;19904;-84
2021/11/20 03:34:44;;;;;;;;;;;6.40;99.90;;;;;;5096072;28;20274;-84
2021/11/20 03:37:10;;;;;;;;;;;6.40;99.90;;;;;;5096003;28;19904;-84
2021/11/20 03:39:37;;;;;;;;;;;6.40;99.90;;;;;;5095981;28;19910;-84
2021/11/20 03:42:03;;;;;;;;;;;6.40;99.90;;;;;;5095857;28;19911;-84
2021/11/20 03:44:29;;;;;;;;;;;6.40;99.90;;;;;;5114179;28;19904;-84
2021/11/20 03:46:54;;;;;;;;;;;6.40;99.90;;;;;;5095868;28;20058;-84
2021/11/20 03:49:20;;;;;;;;;;;6.30;99.90;;;;;;5114102;28;20322;-84
2021/11/20 03:51:46;;;;;;;;;;;6.40;99.90;;;;;;5095832;28;20378;-84
2021/11/20 03:54:12;;;;;;;;;;;6.30;99.90;;;;;;5114007;28;19929;-84
2021/11/20 03:56:38;;;;;;;;;;;6.30;99.90;;;;;;5095777;28;19973;-84
2021/11/20 03:59:04;;;;;;;;;;;6.30;99.90;;;;;;5095797;28;19903;-84
2021/11/20 04:01:31;;;;;;;;;;;6.30;99.90;;;;;;5095643;28;20339;-84
2021/11/20 04:03:56;;;;;;;;;;;6.30;99.90;;;;;;5095696;28;19910;-84
2021/11/20 04:06:22;;;;;;;;;;;6.40;99.90;;;;;;5095722;28;19947;-84
2021/11/20 04:08:49;;;;;;;;;;;6.40;99.90;;;;;;5113866;28;19961;-84
2021/11/20 04:11:17;;;;;;;;;;;6.40;99.90;;;;;;5095614;28;19907;-84
2021/11/20 04:13:43;;;;;;;;;;;6.40;99.90;;;;;;5113828;28;20370;-84
2021/11/20 04:16:10;;;;;;;;;;;6.40;99.90;;;;;;5095474;28;19904;-84
2021/11/20 04:18:35;;;;;;;;;;;6.40;99.90;;;;;;5095540;28;19904;-84
2021/11/20 04:21:01;;;;;;;;;;;6.40;99.90;;;;;;5113771;28;19908;-84
2021/11/20 04:23:27;;;;;;;;;;;6.30;99.90;;;;;;5097057;28;19918;-84
2021/11/20 04:25:53;;;;;;;;;;;6.30;99.90;;;;;;5099869;28;19904;-85
2021/11/20 04:28:18;;;;;;;;;;;6.10;99.90;;;;;;5102409;28;19975;-83
2021/11/20 04:30:45;;;;;;;;;;;6.20;99.90;;;;;;5102459;28;19903;-83
2021/11/20 04:33:11;;;;;;;;;;;6.30;99.90;;;;;;5099843;28;19904;-84
2021/11/20 04:35:37;;;;;;;;;;;6.30;99.90;;;;;;5099658;28;19904;-84
2021/11/20 04:38:03;;;;;;;;;;;6.30;99.90;;;;;;5117911;28;20311;-83
2021/11/20 04:40:29;;;;;;;;;;;6.20;99.90;;;;;;5099354;28;19908;-84
2021/11/20 04:42:55;;;;;;;;;;;6.20;99.90;;;;;;5117563;28;20287;-83
2021/11/20 04:45:22;;;;;;;;;;;6.30;99.90;;;;;;5099254;28;20038;-84
2021/11/20 04:47:47;;;;;;;;;;;6.30;99.90;;;;;;5099178;28;19962;-84
2021/11/20 04:50:13;;;;;;;;;;;6.30;99.90;;;;;;5099213;28;19904;-83
2021/11/20 04:52:39;;;;;;;;;;;6.30;99.90;;;;;;5099104;28;20335;-84
2021/11/20 04:55:06;;;;;;;;;;;6.20;99.90;;;;;;5099091;28;19904;-84
2021/11/20 04:57:32;;;;;;;;;;;6.30;99.90;;;;;;5099066;28;19915;-84
2021/11/20 04:59:57;;;;;;;;;;;6.30;99.90;;;;;;5099039;28;19908;-84
2021/11/20 05:02:23;;;;;;;;;;;6.30;99.90;;;;;;5098893;28;19908;-84
2021/11/20 05:04:48;;;;;;;;;;;6.30;99.90;;;;;;5098925;28;19911;-84
2021/11/20 05:07:16;;;;;;;;;;;6.30;99.90;;;;;;5098871;28;20337;-84
2021/11/20 05:09:41;;;;;;;;;;;6.30;99.90;;;;;;5117182;28;19908;-84
2021/11/20 05:12:07;;;;;;;;;;;6.40;99.90;;;;;;5098812;28;19998;-83
2021/11/20 05:14:36;;;;;;;;;;;6.40;99.90;;;;;;5098713;28;19904;-84
2021/11/20 05:17:03;;;;;;;;;;;6.40;99.90;;;;;;5098649;28;19957;-84
2021/11/20 05:19:29;;;;;;;;;;;6.40;99.90;;;;;;5098658;28;19904;-84
2021/11/20 05:21:55;;;;;;;;;;;6.40;99.90;;;;;;5098290;28;20441;-84
2021/11/20 05:24:20;;;;;;;;;;;6.30;99.90;;;;;;5098564;28;19994;-84
2021/11/20 05:26:50;;;;;;;;;;;6.30;99.90;;;;;;5098456;28;19987;-83
2021/11/20 05:29:35;;;;;;;;;;;6.30;99.90;;;;;;5116650;28;20355;-84
2021/11/20 05:32:02;;;;;;;;;;;6.30;99.90;;;;;;5098434;28;19911;-84
2021/11/20 05:34:28;;;;;;;;;;;6.30;99.90;;;;;;5097497;28;19903;-83
2021/11/20 05:36:53;;;;;;;;;;;6.50;99.90;;;;;;5098285;28;20359;-84
2021/11/20 05:39:19;;;;;;;;;;;6.50;99.90;;;;;;5116470;28;19903;-83
2021/11/20 05:41:45;;;;;;;;;;;6.40;99.90;;;;;;5098168;28;20264;-84
2021/11/20 05:44:14;;;;;;;;;;;6.40;99.90;;;;;;5098256;28;19910;-83
2021/11/20 05:46:40;;;;;;;;;;;6.40;99.90;;;;;;5116681;28;19908;-83
2021/11/20 05:49:06;;;;;;;;;;;6.50;99.90;;;;;;5098033;28;20313;-83
2021/11/20 05:51:32;;;;;;;;;;;6.50;99.90;;;;;;5098043;28;19907;-84
2021/11/20 05:53:57;;;;;;;;;;;6.40;99.90;;;;;;5097961;28;19910;-83
2021/11/20 05:56:23;;;;;;;;;;;6.40;99.90;;;;;;5116250;28;19904;-84
2021/11/20 05:58:49;;;;;;;;;;;6.50;99.90;;;;;;5097908;28;20371;-83
2021/11/20 06:01:15;;;;;;;;;;;6.40;99.90;;;;;;5097947;28;19904;-84
2021/11/20 06:03:40;;;;;;;;;;;6.40;99.90;;;;;;5116006;28;20251;-84
2021/11/20 06:06:06;;;;;;;;;;;6.50;99.90;;;;;;5097746;28;19911;-84
2021/11/20 06:08:32;;;;;;;;;;;6.60;99.90;;;;;;5098008;28;20002;-84
2021/11/20 06:10:59;;;;;;;;;;;6.40;99.90;;;;;;5097649;28;20366;-84
2021/11/20 06:13:25;;;;;;;;;;;6.40;99.90;;;;;;5097554;28;19904;-83
2021/11/20 06:15:51;;;;;;;;;;;6.30;99.90;;;;;;5115761;28;19903;-83
2021/11/20 06:18:17;;;;;;;;;;;6.40;99.90;;;;;;5097424;28;19904;-84
2021/11/20 06:20:44;;;;;;;;;;;6.40;99.90;;;;;;5115802;28;19942;-84
2021/11/20 06:23:10;;;;;;;;;;;6.40;99.90;;;;;;5115465;28;19919;-84
2021/11/20 06:25:36;;;;;;;;;;;6.50;99.90;;;;;;5097367;28;20305;-83
2021/11/20 06:28:01;;;;;;;;;;;6.40;99.90;;;;;;5097360;28;19956;-84
2021/11/20 06:30:27;;;;;;;;;;;6.20;99.90;;;;;;5097281;28;19904;-84
2021/11/20 06:32:53;;;;;;;;;;;6.20;99.90;;;;;;5097254;28;19929;-83
2021/11/20 06:35:20;;;;;;;;;;;6.20;99.90;;;;;;5097314;28;19903;-83
2021/11/20 06:37:46;;;;;;;;;;;6.10;99.90;;;;;;5097150;28;19904;-85
2021/11/20 06:40:14;;;;;;;;;;;6.10;99.90;;;;;;5100945;28;19907;-83
2021/11/20 06:42:40;;;;;;;;;;;6.10;99.90;;;;;;5119233;28;19919;-83
2021/11/20 06:45:06;;;;;;;;;;;6.00;99.90;;;;;;5097410;28;19903;-84
2021/11/20 06:47:32;;;;;;;;;;;6.00;99.90;;;;;;5097016;28;20051;-84
2021/11/20 06:49:58;;;;;;;;;;;6.00;99.90;;;;;;5096922;28;19980;-84
2021/11/20 06:52:24;;;;;;;;;;;6.10;99.90;;;;;;5096879;28;20278;-84
2021/11/20 06:54:49;;;;;;;;;;;6.00;99.90;;;;;;5114938;28;19904;-83
2021/11/20 06:57:26;;;;;;;;;;;6.00;99.90;;;;;;5096767;28;19939;-84
2021/11/20 07:02:36;;;;;;;;;;;5.90;99.90;;;;;;5115336;28;19930;-84
2021/11/20 07:05:03;;;;;;;;;;;6.00;99.90;;;;;;5114888;28;20371;-84
2021/11/20 07:07:28;;;;;;;;;;;6.10;99.90;;;;;;5096564;28;20299;-84
2021/11/20 07:09:55;;;;;;;;;;;6.10;99.90;;;;;;5096501;28;19904;-83
2021/11/20 07:12:21;;;;;;;;;;;6.20;99.90;;;;;;5096458;28;20313;-84
2021/11/20 07:14:47;;;;;;;;;;;6.20;99.90;;;;;;5115019;28;19903;-84
2021/11/20 07:17:13;;;;;;;;;;;6.10;99.90;;;;;;5096491;28;19903;-84
2021/11/20 07:19:39;;;;;;;;;;;6.30;99.90;;;;;;5096341;28;20318;-84
2021/11/20 07:22:04;;;;;;;;;;;6.30;99.90;;;;;;5096017;28;19907;-84
2021/11/20 07:24:30;;;;;;;;;;;6.20;99.90;;;;;;5096378;28;19908;-84
2021/11/20 07:26:56;;;;;;;;;;;6.20;99.90;;;;;;5096188;28;19952;-84
2021/11/20 07:29:21;;;;;;;;;;;6.20;99.90;;;;;;5096403;28;19961;-83
2021/11/20 07:31:47;;;;;;;;;;;6.30;99.90;;;;;;5096326;28;19904;-84
2021/11/20 07:34:13;;;;;;;;;;;6.20;99.90;;;;;;5096087;28;19904;-84
2021/11/20 07:36:39;;;;;;;;;;;6.30;99.90;;;;;;5095990;28;19911;-84
2021/11/20 07:39:06;;;;;;;;;;;6.30;99.90;;;;;;5114313;28;19904;-84
2021/11/20 07:41:32;;;;;;;;;;;6.30;99.90;;;;;;5095925;28;19963;-84
2021/11/20 07:43:58;;;;;;;;;;;6.30;99.90;;;;;;5095953;28;19973;-84
2021/11/20 07:46:24;;;;;;;;;;;6.30;99.90;;;;;;5095895;28;20338;-84
2021/11/20 07:48:50;;;;;;;;;;;6.30;99.90;;;;;;5096220;28;19943;-84
2021/11/20 07:51:16;;;;;;;;;;;6.20;99.90;;;;;;5095886;28;19915;-84
2021/11/20 07:53:42;;;;;;;;;;;6.30;99.90;;;;;;5095788;28;19908;-84
2021/11/20 07:56:08;;;;;;;;;;;6.20;99.90;;;;;;5095845;28;20256;-84
2021/11/20 07:58:34;;;;;;;;;;;6.30;99.90;;;;;;5113631;28;19942;-84
2021/11/20 08:00:59;;;;;;;;;;;6.30;99.90;;;;;;5095770;28;19903;-84
2021/11/20 08:03:25;;;;;;;;;;;6.40;99.90;;;;;;5113873;28;20275;-84
2021/11/20 08:05:52;;;;;;;;;;;6.40;99.90;;;;;;5095625;28;19904;-84
2021/11/20 08:08:20;;;;;;;;;;;6.40;99.90;;;;;;5095692;28;19903;-83
2021/11/20 08:10:46;;;;;;;;;;;6.40;99.90;;;;;;5095636;28;19903;-87
2021/11/20 08:13:11;;;;;;;;;;;6.30;99.90;;;;;;5095663;28;19904;-87
2021/11/20 08:15:37;;;;;;;;;;;6.40;99.90;;;;;;5113815;28;19904;-87
2021/11/20 08:18:03;;;;;;;;;;;6.40;99.90;;;;;;5095638;28;20073;-87
2021/11/20 08:20:34;;;;;;;;;;;6.50;99.90;;;;;;5095603;28;19911;-87
2021/11/20 08:23:02;;;;;;;;;;;6.50;99.90;;;;;;5095350;28;19912;-87
2021/11/20 08:25:28;;;;;;;;;;;6.50;99.90;;;;;;5113890;28;19911;-87
2021/11/20 08:27:53;;;;;;;;;;;6.50;99.90;;;;;;5095552;28;19957;-86
2021/11/20 08:30:22;;;;;;;;;;;6.60;99.90;;;;;;5095486;28;19907;-87
2021/11/20 08:32:48;;;;;;;;;;;6.60;99.90;;;;;;5095474;28;19908;-88
2021/11/20 08:35:15;;;;;;;;;;;6.60;99.90;;;;;;5095460;28;19910;-87
2021/11/20 08:37:40;;;;;;;;;;;6.70;99.90;;;;;;5095290;28;19903;-87
2021/11/20 08:40:07;;;;;;;;;;;6.80;99.90;;;;;;5095285;28;19936;-88
2021/11/20 08:42:35;;;;;;;;;;;6.80;99.90;;;;;;5095287;28;20302;-88
2021/11/20 08:45:01;;;;;;;;;;;6.80;99.90;;;;;;5095560;28;19956;-87
2021/11/20 08:47:26;;;;;;;;;;;6.80;99.90;;;;;;5096072;28;19903;-88
2021/11/20 08:49:52;;;;;;;;;;;6.90;99.90;;;;;;5105928;28;19918;-86
2021/11/20 08:52:17;;;;;;;;;;;6.90;99.90;;;;;;5136933;28;19965;-86
2021/11/20 08:54:43;;;;;;;;;;;6.90;99.90;;;;;;5107986;28;19904;-87
2021/11/20 08:57:09;;;;;;;;;;;6.80;99.90;;;;;;5096387;28;19903;-88
2021/11/20 08:59:36;;;;;;;;;;;6.70;99.90;;;;;;5095863;28;20354;-87
2021/11/20 09:02:23;;;;;;;;;;;6.70;99.90;;;;;;5095342;28;19920;-87
2021/11/20 09:04:51;;;;;;;;;;;6.70;99.90;;;;;;5095378;28;19904;-88
2021/11/20 09:07:23;;;;;;;;;;;6.70;99.90;;;;;;5095562;28;19903;-88
2021/11/20 09:10:10;;;;;;;;;;;6.60;99.90;;;;;;5096160;28;19910;-88
2021/11/20 09:12:45;;;;;;;;;;;6.60;99.90;;;;;;5099059;28;19940;-88
2021/11/20 09:15:16;;;;;;;;;;;6.50;99.90;;;;;;5099057;28;20003;-88
2021/11/20 09:17:43;;;;;;;;;;;6.70;99.90;;;;;;5117661;28;19973;-88
2021/11/20 09:20:10;;;;;;;;;;;6.80;99.90;;;;;;5098879;28;19904;-86
2021/11/20 09:22:35;;;;;;;;;;;6.70;99.90;;;;;;5098378;28;19957;-86
2021/11/20 09:25:03;;;;;;;;;;;6.60;99.90;;;;;;5098725;28;19924;-86
2021/11/20 09:27:29;;;;;;;;;;;6.50;99.90;;;;;;5098577;28;19904;-86
2021/11/20 09:29:55;;;;;;;;;;;6.50;99.90;;;;;;5081583;28;19908;-87
2021/11/20 09:32:21;;;;;;;;;;;6.60;99.90;;;;;;5099470;28;19903;-87
2021/11/20 09:34:46;;;;;;;;;;;6.70;99.90;;;;;;5098516;28;19911;-87
2021/11/20 09:37:12;;;;;;;;;;;6.70;99.90;;;;;;5098529;28;19907;-87
2021/11/20 09:39:39;;;;;;;;;;;6.50;99.90;;;;;;5098291;28;20339;-87
2021/11/20 09:42:23;;;;;;;;;;;6.40;99.90;;;;;;5098280;28;20004;-86
2021/11/20 09:44:50;;;;;;;;;;;6.30;99.90;;;;;;5098195;28;20422;-86
2021/11/20 09:47:21;;;;;;;;;;;6.50;99.90;;;;;;5098943;28;19903;-86
2021/11/20 09:49:51;;;;;;;;;;;6.60;99.90;;;;;;5098379;28;19903;-86
2021/11/20 09:52:17;;;;;;;;;;;6.60;99.90;;;;;;5098002;28;19904;-86
2021/11/20 09:54:45;;;;;;;;;;;6.60;99.90;;;;;;5116366;28;20049;-86
2021/11/20 09:57:10;;;;;;;;;;;6.60;99.90;;;;;;5098091;28;19950;-86
2021/11/20 09:59:36;;;;;;;;;;;6.70;99.90;;;;;;5097955;28;19907;-86
2021/11/20 10:02:14;;;;;;;;;;;6.80;99.90;;;;;;5097998;28;19911;-86
2021/11/20 10:04:45;;;;;;;;;;;6.90;99.90;;;;;;5097813;28;20026;-86
2021/11/20 10:07:16;;;;;;;;;;;6.90;99.90;;;;;;5097849;28;20322;-86
2021/11/20 10:09:47;;;;;;;;;;;6.80;99.90;;;;;;5097871;28;19972;-86
2021/11/20 10:12:16;;;;;;;;;;;6.70;99.90;;;;;;5097535;28;19910;-86
2021/11/20 10:14:43;;;;;;;;;;;6.70;99.90;;;;;;5097604;28;20368;-86
2021/11/20 10:17:12;;;;;;;;;;;6.70;99.90;;;;;;5097557;28;20363;-86
2021/11/20 10:19:39;;;;;;;;;;;6.70;99.90;;;;;;5097565;28;20249;-86
2021/11/20 10:22:20;;;;;;;;;;;6.70;99.90;;;;;;5096919;28;20363;-86
2021/11/20 10:24:52;;;;;;;;;;;6.60;99.90;;;;;;5097457;28;19911;-86
2021/11/20 10:27:30;;;;;;;;;;;6.60;99.90;;;;;;5097614;28;19994;-86
2021/11/20 10:30:08;;;;;;;;;;;6.70;99.90;;;;;;5097544;28;19903;-87
2021/11/20 10:32:36;;;;;;;;;;;6.70;99.90;;;;;;5097387;28;19904;-86
2021/11/20 10:35:23;;;;;;;;;;;6.70;99.90;;;;;;5115524;28;19990;-86
2021/11/20 10:38:00;;;;;;;;;;;6.80;99.90;;;;;;5115488;28;19904;-87
2021/11/20 10:40:52;;;;;;;;;;;6.70;99.90;;;;;;5097160;28;19961;-86
2021/11/20 10:43:32;;;;;;;;;;;6.70;99.90;;;;;;5092087;28;19908;-86
2021/11/20 10:46:01;;;;;;;;;;;6.50;99.90;;;;;;5097092;28;20370;-86
2021/11/20 10:48:37;;;;;;;;;;;6.50;99.90;;;;;;5097887;28;19903;-86
2021/11/20 10:51:22;;;;;;;;;;;6.50;99.90;;;;;;5098076;28;19907;-87
2021/11/20 10:54:06;;;;;;;;;;;6.70;99.90;;;;;;5104681;28;20039;-87
2021/11/20 10:56:40;;;;;;;;;;;6.60;99.90;;;;;;5118215;28;20373;-86
2021/11/20 10:59:18;;;;;;;;;;;6.70;99.90;;;;;;5108448;28;19943;-88
2021/11/20 11:02:02;;;;;;;;;;;6.60;99.90;;;;;;5099042;28;19915;-87
2021/11/20 11:04:28;;;;;;;;;;;6.70;99.90;;;;;;5097919;28;19904;-87
2021/11/20 11:07:00;;;;;;;;;;;6.50;99.90;;;;;;5097105;28;19904;-87
2021/11/20 11:09:31;;;;;;;;;;;6.50;99.90;;;;;;5096765;28;19903;-87
2021/11/20 11:11:59;;;;;;;;;;;6.50;99.90;;;;;;5115019;28;19911;-87
2021/11/20 11:14:37;;;;;;;;;;;6.40;99.90;;;;;;5096680;28;19911;-87
2021/11/20 11:17:15;;;;;;;;;;;6.50;99.90;;;;;;5096870;28;20322;-87
2021/11/20 11:19:46;;;;;;;;;;;6.60;99.90;;;;;;5097001;28;19904;-88
2021/11/20 11:22:18;;;;;;;;;;;6.50;99.90;;;;;;5096147;28;19947;-87
2021/11/20 11:24:55;;;;;;;;;;;6.50;99.90;;;;;;5096535;28;20370;-87
2021/11/20 11:27:41;;;;;;;;;;;6.50;99.90;;;;;;5096771;28;19904;-87
2021/11/20 11:30:09;;;;;;;;;;;6.40;99.90;;;;;;5096400;28;19903;-87
2021/11/20 11:32:36;;;;;;;;;;;6.40;99.90;;;;;;5095687;28;19903;-87
2021/11/20 11:35:08;;;;;;;;;;;6.50;99.90;;;;;;5096218;28;19914;-87
2021/11/20 11:37:45;;;;;;;;;;;6.60;99.90;;;;;;5096295;28;19904;-87
2021/11/20 11:40:11;;;;;;;;;;;6.60;99.90;;;;;;5096297;28;19918;-87
2021/11/20 11:42:44;;;;;;;;;;;6.70;99.90;;;;;;5096161;28;19908;-87
2021/11/20 11:45:34;;;;;;;;;;;6.80;99.90;;;;;;5096238;28;20274;-87
2021/11/20 11:48:12;;;;;;;;;;;6.80;99.90;;;;;;5096250;28;19911;-87
2021/11/20 11:50:57;;;;;;;;;;;6.80;99.90;;;;;;5096089;28;20002;-87
2021/11/20 11:53:22;;;;;;;;;;;6.80;99.90;;;;;;5096152;28;20366;-87
2021/11/20 11:55:49;;;;;;;;;;;6.70;99.90;;;;;;5096068;28;19956;-88
2021/11/20 11:58:34;;;;;;;;;;;6.70;99.90;;;;;;5095849;28;20279;-87
2021/11/20 12:01:03;;;;;;;;;;;6.70;99.90;;;;;;5095851;28;19903;-87
2021/11/20 12:03:31;;;;;;;;;;;6.80;99.90;;;;;;5095873;28;19908;-87
2021/11/20 12:06:03;;;;;;;;;;;6.60;99.90;;;;;;5095788;28;19912;-87
2021/11/20 12:08:37;;;;;;;;;;;6.60;99.90;;;;;;5095786;28;19903;-87
2021/11/20 12:11:09;;;;;;;;;;;6.60;99.90;;;;;;5095784;28;19903;-87
2021/11/20 12:13:37;;;;;;;;;;;6.70;99.90;;;;;;5114081;28;20355;-87
2021/11/20 12:16:05;;;;;;;;;;;6.70;99.90;;;;;;5095945;28;19908;-87
2021/11/20 12:18:49;;;;;;;;;;;6.60;99.90;;;;;;5095643;28;19904;-86
2021/11/20 12:21:31;;;;;;;;;;;6.60;99.90;;;;;;5095617;28;19910;-86
2021/11/20 12:24:07;;;;;;;;;;;6.60;99.90;;;;;;5092148;28;19923;-87
2021/11/20 12:26:42;;;;;;;;;;;6.70;99.90;;;;;;5092331;28;19957;-87
2021/11/20 12:29:07;;;;;;;;;;;6.70;99.90;;;;;;5086977;28;19904;-87
2021/11/20 12:31:52;;;;;;;;;;;6.60;99.90;;;;;;5092132;28;20000;-87
2021/11/20 12:34:32;;;;;;;;;;;6.70;99.90;;;;;;5088070;28;19904;-88
2021/11/20 12:37:17;;;;;;;;;;;6.80;99.90;;;;;;5092161;28;19910;-88
2021/11/20 12:40:03;;;;;;;;;;;6.60;99.90;;;;;;5092239;28;19908;-88
2021/11/20 12:42:40;;;;;;;;;;;6.60;99.90;;;;;;5088793;28;19931;-88
2021/11/20 12:45:22;;;;;;;;;;;6.80;99.90;;;;;;5096339;28;19995;-88
2021/11/20 12:48:07;;;;;;;;;;;6.80;99.90;;;;;;5088251;28;19904;-88
2021/11/20 12:50:51;;;;;;;;;;;6.80;99.90;;;;;;5096071;28;19908;-88
2021/11/20 12:53:25;;;;;;;;;;;6.90;99.90;;;;;;5092138;28;19904;-88
2021/11/20 12:55:50;;;;;;;;;;;6.90;99.90;;;;;;5096099;28;20382;-88
2021/11/20 12:58:22;;;;;;;;;;;6.90;99.90;;;;;;5095987;28;19956;-88
2021/11/20 13:00:52;;;;;;;;;;;6.90;99.90;;;;;;5096115;28;19904;-87
2021/11/20 13:03:27;;;;;;;;;;;6.80;99.90;;;;;;5096414;28;19908;-87
2021/11/20 13:05:57;;;;;;;;;;;6.70;99.90;;;;;;5107538;28;19904;-88
2021/11/20 13:08:27;;;;;;;;;;;6.60;99.90;;;;;;5119890;28;19904;-88
2021/11/20 13:10:56;;;;;;;;;;;6.50;99.90;;;;;;5097977;28;19907;-88
2021/11/20 13:13:40;;;;;;;;;;;6.50;99.90;;;;;;5096546;28;19904;-88
2021/11/20 13:16:06;;;;;;;;;;;6.50;99.90;;;;;;5095928;28;19904;-88
2021/11/20 13:18:37;;;;;;;;;;;6.50;99.90;;;;;;5095664;28;19908;-88
2021/11/20 13:21:18;;;;;;;;;;;6.40;99.90;;;;;;5089253;28;20395;-87
2021/11/20 13:23:45;;;;;;;;;;;6.50;99.90;;;;;;5095177;28;19931;-87
2021/11/20 13:26:10;;;;;;;;;;;6.60;99.90;;;;;;5090228;28;19904;-88
2021/11/20 13:28:37;;;;;;;;;;;6.50;99.90;;;;;;5096937;28;19996;-88
2021/11/20 13:31:04;;;;;;;;;;;6.50;99.90;;;;;;5089200;28;20321;-88
2021/11/20 13:33:30;;;;;;;;;;;6.60;99.90;;;;;;5095255;28;20378;-88
2021/11/20 13:35:57;;;;;;;;;;;6.50;99.90;;;;;;5088225;28;19903;-88
2021/11/20 13:38:23;;;;;;;;;;;6.30;99.90;;;;;;5095229;28;19908;-88
2021/11/20 13:40:50;;;;;;;;;;;6.00;99.90;;;;;;5087198;28;19910;-88
2021/11/20 13:43:17;;;;;;;;;;;5.80;99.90;;;;;;5094977;28;19966;-88
2021/11/20 13:45:53;;;;;;;;;;;5.60;99.90;;;;;;5096630;28;20394;-88
2021/11/20 13:48:23;;;;;;;;;;;5.60;99.90;;;;;;5096274;28;19908;-87
2021/11/20 13:50:49;;;;;;;;;;;5.80;99.90;;;;;;5086780;28;19954;-88
2021/11/20 13:53:20;;;;;;;;;;;5.90;99.90;;;;;;5096115;28;20351;-87
2021/11/20 13:55:47;;;;;;;;;;;6.00;99.90;;;;;;5093966;28;19991;-87
2021/11/20 13:58:19;;;;;;;;;;;5.80;99.90;;;;;;5089936;28;19908;-87
2021/11/20 14:00:46;;;;;;;;;;;5.90;99.90;;;;;;5096028;28;19903;-88
2021/11/20 14:03:12;;;;;;;;;;;6.00;99.90;;;;;;5090207;28;19908;-87
2021/11/20 14:05:37;;;;;;;;;;;6.10;99.90;;;;;;5094796;28;19904;-88
2021/11/20 14:08:05;;;;;;;;;;;6.10;99.90;;;;;;5088942;28;19927;-88
2021/11/20 14:10:32;;;;;;;;;;;6.10;99.90;;;;;;5094603;28;19911;-87
2021/11/20 14:13:05;;;;;;;;;;;6.10;99.90;;;;;;5087508;28;19908;-88
2021/11/20 14:15:46;;;;;;;;;;;6.10;99.90;;;;;;5095806;28;20290;-88
2021/11/20 14:18:12;;;;;;;;;;;6.10;99.90;;;;;;5089532;28;19904;-87
2021/11/20 14:20:43;;;;;;;;;;;6.30;99.90;;;;;;5094363;28;19904;-88
2021/11/20 14:23:10;;;;;;;;;;;6.20;99.90;;;;;;5088901;28;20291;-88
2021/11/20 14:25:36;;;;;;;;;;;6.20;99.90;;;;;;5095704;28;19932;-88
2021/11/20 14:28:03;;;;;;;;;;;6.20;99.90;;;;;;5088012;28;19930;-88
2021/11/20 14:30:36;;;;;;;;;;;6.20;99.90;;;;;;5094258;28;19972;-87
2021/11/20 14:33:03;;;;;;;;;;;6.00;99.90;;;;;;5088692;28;19927;-88
2021/11/20 14:35:29;;;;;;;;;;;5.90;99.90;;;;;;5094559;28;19904;-88
2021/11/20 14:37:58;;;;;;;;;;;6.10;99.90;;;;;;5087136;28;19926;-88
2021/11/20 14:40:24;;;;;;;;;;;5.90;99.90;;;;;;5094260;28;19911;-87
2021/11/20 14:42:49;;;;;;;;;;;5.80;99.90;;;;;;5095729;28;19908;-87
2021/11/20 14:45:20;;;;;;;;;;;5.80;99.90;;;;;;5090032;28;19911;-88